ADDS METAR Data INFO
IDs: Format: Raw Decoded Include TAF

Data at: 0352 UTC 20 Feb 2018

KFMM 200335Z AUTO 03009KT 4SM -SN SCT012 SCT037 OVC045 M15/M18 A2975 RMK AO2 T11461179
KFMM 200315Z AUTO 04010KT 7SM SCT020 SCT026 OVC041 M15/M18 A2974 RMK AO2 T11461177
KFMM 200255Z AUTO 01013KT 7SM -SN SCT013 BKN020 OVC026 M14/M17 A2973 RMK AO2 T11451175
KFMM 200235Z AUTO 03013KT 3SM -SN SCT013 BKN020 OVC039 M14/M17 A2974 RMK AO2 T11421171
KFMM 200215Z AUTO 03014KT 5SM -SN BKN015 OVC021 M14/M17 A2973 RMK AO2 T11401170
KFMM 200155Z AUTO 02015KT 5SM -SN SCT015 OVC021 M14/M17 A2972 RMK AO2 T11361166
KFMM 200135Z AUTO 03013KT 7SM -SN OVC018 M13/M16 A2971 RMK AO2 T11331162
KFMM 200115Z AUTO 03013G18KT 7SM -SN OVC018 M13/M16 A2969 RMK AO2 T11301157
KFMM 200055Z AUTO 03013KT 4SM -SN OVC016 M13/M15 A2968 RMK AO2 T11271155
KFMM 200035Z AUTO 02013KT 5SM -SN BKN014 OVC018 M13/M15 A2968 RMK AO2 T11261153
KFMM 200015Z AUTO 05013KT 5SM -SN OVC014 M13/M15 A2966 RMK AO2 T11261153
KFMM 192355Z AUTO 04013KT 5SM -SN OVC014 M12/M15 A2965 RMK AO2 T11251152 11103 21125
KFMM 192335Z AUTO 04011KT 4SM -SN OVC014 M12/M15 A2968 RMK AO2 T11221150
KFMM 192315Z AUTO 04012KT 5SM -SN OVC014 M12/M15 A2966 RMK AO2 T11201150
KFMM 192255Z AUTO 04012KT 5SM -SN OVC014 M12/M15 A2966 RMK AO2 T11181149
KFMM 192235Z AUTO 03008KT 5SM -SN OVC014 M12/M15 A2966 RMK AO2 T11161146
KFMM 192215Z AUTO 05008KT 5SM -SN OVC014 M11/M15 A2966 RMK AO2 T11151146
KFMM 192155Z AUTO 04009KT 4SM -SN OVC014 M11/M14 A2966 RMK AO2 T11131145
KFMM 192135Z AUTO 04009KT 4SM -SN OVC014 M11/M14 A2966 RMK AO2 T11111143
KFMM 192115Z AUTO 06008KT 5SM -SN OVC014 M11/M14 A2964 RMK AO2 T11091141
KFMM 192055Z AUTO 07010KT 3SM -SN OVC014 M11/M14 A2965 RMK AO2 T11061140
KFMM 192035Z AUTO 07009KT 4SM -SN OVC014 M11/M14 A2965 RMK AO2 T11071139
KFMM 192015Z AUTO 06008KT 3SM -SN OVC014 M11/M14 A2967 RMK AO2 T11081141
KFMM 191955Z AUTO 07009KT 3SM -SN OVC014 M11/M14 A2967 RMK AO2 T11081142
KFMM 191935Z AUTO 05009KT 4SM -SN OVC014 M11/M14 A2968 RMK AO2 T11071141
KFMM 191915Z AUTO 06008KT 5SM -SN OVC014 M11/M14 A2970 RMK AO2 T11061142
KFMM 191855Z AUTO 08009KT 4SM -SN OVC014 M10/M14 A2970 RMK AO2 T11031140
KFMM 191835Z AUTO 09009KT 5SM -SN OVC014 M10/M14 A2971 RMK AO2 T11051139
KFMM 191815Z AUTO 07008KT 3SM -SN OVC014 M11/M14 A2972 RMK AO2 T11061140
KFMM 191755Z AUTO 05007KT 5SM -SN OVC014 M11/M14 A2974 RMK AO2 T11071141 11106 21125
KFMM 191735Z AUTO 07009KT 5SM -SN OVC014 M11/M14 A2974 RMK AO2 T11101143
KFMM 191715Z AUTO 06008KT 2 1/2SM -SN OVC016 M11/M14 A2975 RMK AO2 VIS 1 1/2V5 T11101145
KFMM 191655Z AUTO 05007KT 4SM -SN OVC016 M11/M14 A2976 RMK AO2 T11111145
KFMM 191635Z AUTO 05006KT 3SM -SN OVC016 M11/M14 A2976 RMK AO2 T11111144
KFMM 191615Z AUTO 3SM -SN OVC014 M11/M14 A2975 RMK AO2 T11131145
KFMM 191555Z AUTO 05006KT 3SM -SN OVC016 M11/M15 A2977 RMK AO2 T11151146
KFMM 191535Z AUTO 05008KT 3SM -SN BKN016 OVC021 M12/M15 A2977 RMK AO2 T11181146
KFMM 191515Z AUTO 05008KT 2SM -SN SCT014 OVC021 M12/M14 A2977 RMK AO2 T11181145
KFMM 191455Z AUTO 04008KT 2 1/2SM -SN BKN016 OVC021 M12/M15 A2978 RMK AO2 T11201146
KFMM 191435Z AUTO 1 3/4SM -SN SCT010 BKN014 OVC021 M12/M14 A2978 RMK AO2 T11211145
KFMM 191415Z AUTO 05007KT 1 1/2SM -SN SCT012 OVC021 M12/M15 A2978 RMK AO2 T11231147
KFMM 191355Z AUTO 2SM -SN SCT006 SCT017 OVC023 M12/M15 A2977 RMK AO2 T11251148
KFMM 191335Z AUTO 03007KT 2SM -SN SCT008 BKN020 OVC025 M12/M15 A2977 RMK AO2 T11231147
KFMM 191315Z AUTO 04008KT 2SM -SN SCT007 BKN018 OVC025 M12/M15 A2977 RMK AO2 T11221146
KFMM 191255Z AUTO 04007KT 1 3/4SM -SN SCT007 BKN014 OVC020 M12/M14 A2977 RMK AO2 T11211143
KFMM 191235Z AUTO 02011G14KT 2 1/2SM -SN OVC017 M12/M14 A2976 RMK AO2 T11211141
KFMM 191215Z AUTO 01008KT 4SM -SN OVC015 M12/M14 A2977 RMK AO2 T11201140
KFMM 191155Z AUTO 02009KT 4SM -SN OVC013 M12/M14 A2976 RMK AO2 T11201140 11085 21120
KFMM 191135Z AUTO 01010KT 5SM -SN OVC013 M12/M14 A2976 RMK AO2 T11171140
KFMM 191115Z AUTO 01009KT 5SM -SN OVC013 M12/M14 A2975 RMK AO2 T11161140
KFMM 191055Z AUTO 02009KT 7SM OVC015 M11/M14 A2975 RMK AO2 T11151141
KFMM 191035Z AUTO 03012KT 10SM OVC015 M11/M14 A2974 RMK AO2 T11131141
KFMM 191015Z AUTO 02011KT 10SM OVC017 M11/M14 A2974 RMK AO2 T11111141
KFMM 190955Z AUTO 02016KT 10SM OVC017 M11/M14 A2973 RMK AO2 T11101140
KFMM 190935Z AUTO 03019G23KT 10SM OVC017 M11/M14 A2972 RMK AO2 T11071136
KFMM 190915Z AUTO 03019KT 7SM OVC017 M10/M13 A2972 RMK AO2 T11051130
KFMM 190855Z AUTO 03016KT 10SM OVC017 M10/M13 A2972 RMK AO2 T11021130
KFMM 190835Z AUTO 02012G16KT 10SM OVC015 M10/M13 A2974 RMK AO2 T11011127
KFMM 190815Z AUTO 02015KT 10SM -SN OVC015 M10/M12 A2974 RMK AO2 T11001125
KFMM 190755Z AUTO 02015G19KT 7SM OVC015 M10/M12 A2974 RMK AO2 T10961120
KFMM 190735Z AUTO 03013KT 5SM -SN OVC015 M10/M12 A2973 RMK AO2 T10961119
KFMM 190715Z AUTO 02016KT 7SM OVC015 M09/M12 A2973 RMK AO2 T10951120
KFMM 190655Z AUTO 03013G20KT 7SM OVC015 M09/M12 A2973 RMK AO2 T10941120
KFMM 190635Z AUTO 02015KT 7SM OVC015 M09/M12 A2972 RMK AO2 T10901118
KFMM 190615Z AUTO 01017G20KT 10SM OVC011 M09/M11 A2971 RMK AO2 T10861115
KFMM 190555Z AUTO 02013KT 10SM OVC011 M08/M11 A2971 RMK AO2 T10841109 10169 21084 402131084
KFMM 190535Z AUTO 02013KT 10SM OVC009 M08/M10 A2969 RMK AO2 T10811104
KFMM 190515Z AUTO 36015KT 10SM OVC009 M08/M10 A2969 RMK AO2 T10791100
KFMM 190455Z AUTO 02017G21KT 10SM OVC007 M07/M09 A2967 RMK AO2 T10731088
KFMM 190435Z AUTO 01014G21KT 10SM OVC007 M07/M08 A2965 RMK AO2 T10691083
KFMM 190415Z AUTO 02018KT 10SM OVC007 M06/M08 A2962 RMK AO2 T10621077
KFMM 190355Z AUTO 02018G26KT 10SM OVC007 M05/M07 A2961 RMK AO2 T10551073
KFMM 190335Z AUTO 03023G29KT 10SM OVC007 M05/M07 A2957 RMK AO2 T10501070
KFMM 190315Z AUTO 03024G32KT 10SM OVC007 M05/M07 A2954 RMK AO2 T10461066
KFMM 190255Z AUTO 03025G29KT 10SM OVC007 M04/M06 A2953 RMK AO2 T10371058
KFMM 190235Z AUTO 02027G34KT 10SM OVC007 M03/M06 A2953 RMK AO2 T10351056
KFMM 190215Z AUTO 01026G33KT 10SM BKN009 BKN013 M03/M05 A2953 RMK AO2 T10261052
KFMM 190155Z AUTO 02028G34KT 10SM SCT011 M01/M04 A2951 RMK AO2 T10091042
KFMM 190135Z AUTO 02025G32KT 10SM CLR 01/M04 A2951 RMK AO2 T00131037
KFMM 190115Z AUTO 03023G30KT 10SM CLR 04/M03 A2950 RMK AO2 T00351033
KFMM 190055Z AUTO 02020G32KT 10SM CLR 05/M03 A2948 RMK AO2 T00531035
KFMM 190035Z AUTO 03027G34KT 10SM CLR 08/M04 A2946 RMK AO2 T00761037
KFMM 190015Z AUTO 35010KT 10SM CLR 15/M12 A2942 RMK AO2 T01531124
KFMM 182355Z AUTO 28012KT 10SM CLR 17/M13 A2940 RMK AO2 T01721128 10213 20172
KFMM 182335Z AUTO 28014G21KT 10SM CLR 19/M13 A2939 RMK AO2 T01851128
KFMM 182315Z AUTO 28015KT 10SM CLR 19/M13 A2939 RMK AO2 T01921128
KFMM 182255Z AUTO 27018G22KT 10SM CLR 20/M13 A2939 RMK AO2 T02021129
KFMM 182235Z AUTO 25019G24KT 10SM CLR 20/M13 A2939 RMK AO2 T02041135
KFMM 182215Z AUTO 25022G25KT 10SM CLR 21/M13 A2939 RMK AO2 T02091134
KFMM 182155Z AUTO 27019G24KT 10SM CLR 21/M14 A2939 RMK AO2 T02111136
KFMM 182135Z AUTO 28013G23KT 10SM CLR 21/M14 A2939 RMK AO2 T02051136
KFMM 182115Z AUTO 26014G22KT 10SM CLR 20/M14 A2940 RMK AO2 T02041136
KFMM 182055Z AUTO 26015G21KT 10SM CLR 21/M14 A2940 RMK AO2 T02081136
KFMM 182035Z AUTO 28015G19KT 10SM CLR 21/M14 A2941 RMK AO2 T02081139
KFMM 182015Z AUTO 25010G16KT 10SM CLR 20/M14 A2941 RMK AO2 T02031141
KFMM 181955Z AUTO 24014KT 10SM CLR 20/M14 A2943 RMK AO2 T02011145
KFMM 181935Z AUTO 22010KT 10SM CLR 21/M14 A2944 RMK AO2 T02061145
KFMM 181915Z AUTO 25009G15KT 10SM CLR 21/M14 A2945 RMK AO2 T02051143
KFMM 181855Z AUTO 26008G14KT 10SM CLR 20/M14 A2947 RMK AO2 T02021145
KFMM 181835Z AUTO 24010G21KT 10SM CLR 20/M15 A2948 RMK AO2 T01971146
KFMM 181815Z AUTO 19010G14KT 10SM CLR 19/M14 A2948 RMK AO2 T01871142
KFMM 181755Z AUTO 21009G18KT 10SM CLR 19/M15 A2950 RMK AO2 T01851147 10188 21003
KFMM 181735Z AUTO 20012G17KT 10SM CLR 18/M14 A2950 RMK AO2 T01781144
KFMM 181715Z AUTO 20011G16KT 10SM CLR 18/M14 A2951 RMK AO2 T01781138
KFMM 181655Z AUTO 20011KT 10SM CLR 18/M13 A2951 RMK AO2 T01751128
KFMM 181635Z AUTO 21010KT 10SM CLR 16/M13 A2952 RMK AO2 T01571128
KFMM 181615Z AUTO 20008KT 10SM CLR 15/M13 A2954 RMK AO2 T01451128
KFMM 181555Z AUTO 21007KT 10SM CLR 12/M12 A2954 RMK AO2 T01231117